Time;durP1;ratioP1;P1;durP2;ratioP2;P2;SDS_P1;SDS_P2;PMS_P1;PMS_P2;Temp;Humidity;BMP_temperature;BMP_pressure;BME280_temperature;BME280_humidity;BME280_pressure;Samples;Min_cycle;Max_cycle;Signal;HPM_P1;HPM_P2
2024/03/11 00:01:23;;;;;;;14.88;13.35;;;;;;;10.48;99.20;98306.91;10435902;28;20191;-63
2024/03/11 00:06:26;;;;;;;13.85;12.55;;;;;;;10.52;99.20;98310.03;10436718;28;20137;-64
2024/03/11 00:11:29;;;;;;;12.50;11.27;;;;;;;10.45;99.12;98312.56;10436309;28;20081;-63
2024/03/11 00:16:30;;;;;;;12.45;11.25;;;;;;;10.25;99.15;98312.91;10435220;28;20060;-64
2024/03/11 00:21:32;;;;;;;12.27;11.07;;;;;;;10.17;100.00;98312.91;10435995;28;20682;-63
2024/03/11 00:26:33;;;;;;;11.85;10.70;;;;;;;10.16;100.00;98302.44;10438513;28;20056;-62
2024/03/11 00:31:37;;;;;;;11.40;10.30;;;;;;;10.11;100.00;98302.13;10425309;28;20048;-63
2024/03/11 00:36:38;;;;;;;10.93;9.82;;;;;;;10.17;100.00;98296.94;10436245;28;20131;-66
2024/03/11 00:41:41;;;;;;;8.15;7.35;;;;;;;10.13;100.00;98346.13;10418273;28;20141;-61
2024/03/11 00:46:46;;;;;;;7.10;6.40;;;;;;;10.06;99.76;98364.59;10421461;28;20162;-62
2024/03/11 00:51:47;;;;;;;6.22;5.63;;;;;;;9.90;99.94;98356.63;10417048;28;20048;-63
2024/03/11 00:56:50;;;;;;;4.18;3.78;;;;;;;9.66;99.82;98338.84;10425153;28;20048;-60
2024/03/11 01:01:52;;;;;;;4.05;3.70;;;;;;;9.58;100.00;98362.72;10432307;28;20079;-64
2024/03/11 01:06:53;;;;;;;3.55;3.25;;;;;;;9.66;99.63;98365.41;10416673;28;20060;-63
2024/03/11 01:12:13;;;;;;;3.85;3.45;;;;;;;9.78;98.99;98374.72;10411874;28;20040;-63
2024/03/11 01:17:19;;;;;;;4.03;2.95;;;;;;;9.73;99.25;98367.22;10398735;28;20056;-61
2024/03/11 01:22:21;;;;;;;2.78;2.50;;;;;;;9.68;99.26;98376.69;10405262;28;20340;-62
2024/03/11 01:27:25;;;;;;;4.38;3.25;;;;;;;9.57;99.05;98377.00;10422157;28;20044;-61
2024/03/11 01:32:28;;;;;;;2.90;2.60;;;;;;;9.53;99.32;98374.69;10420302;28;20652;-64
2024/03/11 01:37:30;;;;;;;3.88;2.72;;;;;;;9.52;99.79;98390.78;10390701;28;20056;-63
2024/03/11 01:42:31;;;;;;;3.20;2.90;;;;;;;9.43;100.00;98397.88;10427665;28;20498;-64
2024/03/11 01:47:33;;;;;;;2.78;2.50;;;;;;;9.31;100.00;98385.91;10430106;28;20650;-63
2024/03/11 01:52:48;;;;;;;4.32;3.17;;;;;;;9.27;100.00;98398.66;10418031;28;20056;-64
2024/03/11 01:57:54;;;;;;;3.00;2.70;;;;;;;9.24;100.00;98377.75;10433957;28;20427;-64
2024/03/11 02:02:56;;;;;;;3.15;2.85;;;;;;;9.34;100.00;98375.78;10432331;28;20052;-62
2024/03/11 02:08:01;;;;;;;3.00;2.70;;;;;;;9.40;100.00;98374.31;10414583;28;20047;-61
2024/03/11 02:13:04;;;;;;;3.38;3.08;;;;;;;9.20;100.00;98366.63;10434659;28;20063;-63
2024/03/11 02:18:06;;;;;;;2.90;2.63;;;;;;;9.27;100.00;98381.91;10403263;28;20058;-63
2024/03/11 02:23:08;;;;;;;3.10;2.80;;;;;;;9.27;100.00;98371.28;10429110;28;20051;-63
2024/03/11 02:28:09;;;;;;;2.95;2.65;;;;;;;9.35;100.00;98381.91;10423925;28;20786;-62
2024/03/11 02:33:10;;;;;;;4.35;2.97;;;;;;;9.26;100.00;98369.63;10436348;28;20388;-63
2024/03/11 02:38:14;;;;;;;3.00;2.73;;;;;;;9.19;100.00;98378.22;10433427;28;20227;-65
2024/03/11 02:43:17;;;;;;;3.10;2.78;;;;;;;9.13;100.00;98378.88;10426574;28;20067;-63
2024/03/11 02:48:21;;;;;;;3.45;3.10;;;;;;;9.03;100.00;98381.63;10441883;28;21805;-61
2024/03/11 02:53:23;;;;;;;3.22;2.80;;;;;;;9.14;100.00;98392.97;10396660;28;20048;-63
2024/03/11 02:58:25;;;;;;;2.83;2.53;;;;;;;9.03;100.00;98396.75;10434964;28;20482;-62
2024/03/11 03:03:27;;;;;;;2.58;2.33;;;;;;;9.03;100.00;98408.19;10438491;28;20045;-63
2024/03/11 03:08:28;;;;;;;2.13;1.80;;;;;;;8.99;100.00;98411.31;10437872;28;20545;-64
2024/03/11 03:13:29;;;;;;;2.55;2.05;;;;;;;9.02;100.00;98411.00;10425757;28;20963;-63
2024/03/11 03:18:31;;;;;;;2.30;2.10;;;;;;;8.93;100.00;98402.19;10443585;28;20054;-60
2024/03/11 03:23:32;;;;;;;1.88;1.67;;;;;;;8.98;100.00;98409.66;10446840;28;20067;-64
2024/03/11 03:28:34;;;;;;;2.30;1.65;;;;;;;8.97;100.00;98413.31;10427731;28;20055;-62
2024/03/11 03:33:39;;;;;;;2.03;1.83;;;;;;;8.77;100.00;98416.19;10431825;28;20061;-64
2024/03/11 03:38:41;;;;;;;1.50;1.15;;;;;;;8.88;100.00;98430.16;10426536;28;20052;-66
2024/03/11 03:43:46;;;;;;;1.70;1.35;;;;;;;8.77;100.00;98440.06;10422240;28;20060;-63
2024/03/11 03:48:48;;;;;;;1.13;0.93;;;;;;;8.81;100.00;98440.56;10445648;28;20058;-64
2024/03/11 03:53:50;;;;;;;1.55;1.10;;;;;;;8.81;100.00;98441.41;10410186;28;20213;-63
2024/03/11 03:58:53;;;;;;;1.30;1.10;;;;;;;8.75;100.00;98457.09;10434892;28;20044;-62
2024/03/11 04:03:54;;;;;;;1.90;1.23;;;;;;;8.75;100.00;98457.09;10422676;28;20132;-64
2024/03/11 04:08:56;;;;;;;1.75;1.23;;;;;;;8.75;100.00;98460.63;10426082;28;20076;-63
2024/03/11 04:13:57;;;;;;;2.28;0.93;;;;;;;8.64;100.00;98443.09;10411303;28;20051;-62
2024/03/11 04:19:00;;;;;;;1.38;1.10;;;;;;;8.82;100.00;98458.16;10423965;28;20562;-63
2024/03/11 04:24:02;;;;;;;0.85;0.57;;;;;;;8.78;98.84;98473.56;10439561;28;20194;-64
2024/03/11 04:29:05;;;;;;;0.98;0.43;;;;;;;8.69;98.95;98465.69;10436161;28;20056;-63
2024/03/11 04:34:08;;;;;;;1.58;0.70;;;;;;;8.86;99.03;98478.09;10440808;28;20056;-62
2024/03/11 04:39:14;;;;;;;0.98;0.70;;;;;;;8.85;99.48;98482.53;10438469;28;20086;-65
2024/03/11 04:44:17;;;;;;;0.60;0.30;;;;;;;8.77;98.35;98487.81;10400165;28;20049;-62
2024/03/11 04:49:19;;;;;;;0.82;0.30;;;;;;;8.83;98.93;98481.06;10420748;28;20052;-64
2024/03/11 04:54:21;;;;;;;0.68;0.30;;;;;;;8.83;98.50;98487.19;10432494;28;20085;-61
2024/03/11 04:59:22;;;;;;;1.27;0.52;;;;;;;8.91;99.47;98493.53;10417986;28;20134;-64
2024/03/11 05:04:24;;;;;;;0.85;0.75;;;;;;;8.90;100.00;98497.16;10438694;28;20186;-64
2024/03/11 05:09:25;;;;;;;1.23;1.08;;;;;;;8.79;100.00;98477.88;10377608;28;20176;-62
2024/03/11 05:14:28;;;;;;;2.13;1.80;;;;;;;8.85;100.00;98497.63;10437224;28;20154;-63
2024/03/11 05:19:30;;;;;;;2.88;2.08;;;;;;;8.81;100.00;98505.09;10421491;28;20387;-62
2024/03/11 05:24:32;;;;;;;3.17;2.05;;;;;;;8.82;100.00;98511.22;10429211;28;20162;-62
2024/03/11 05:29:35;;;;;;;3.22;1.92;;;;;;;8.71;100.00;98495.53;10390902;28;20438;-64
2024/03/11 05:34:36;;;;;;;2.47;2.00;;;;;;;8.74;100.00;98506.69;10415699;28;20049;-62
2024/03/11 05:39:38;;;;;;;4.15;2.60;;;;;;;8.64;100.00;98509.41;10429457;28;20056;-63
2024/03/11 05:44:40;;;;;;;3.00;2.42;;;;;;;8.67;100.00;98502.97;10427779;28;20080;-63
2024/03/11 05:49:42;;;;;;;3.88;2.88;;;;;;;8.85;100.00;98522.34;10402626;28;20588;-63
2024/03/11 05:54:50;;;;;;;3.83;3.42;;;;;;;8.92;100.00;98535.03;10437795;28;20816;-65
2024/03/11 05:59:54;;;;;;;4.35;3.40;;;;;;;8.93;100.00;98536.66;10431575;28;20045;-64
2024/03/11 06:04:56;;;;;;;5.35;4.85;;;;;;;8.85;100.00;98521.53;10425829;28;20063;-64
2024/03/11 06:09:58;;;;;;;5.82;5.32;;;;;;;8.77;100.00;98524.94;10434290;28;20041;-64
2024/03/11 06:14:59;;;;;;;5.18;4.68;;;;;;;8.76;100.00;98525.94;10430462;28;20150;-63
2024/03/11 06:20:09;;;;;;;6.15;5.55;;;;;;;8.80;100.00;98529.94;10434779;28;20055;-63
2024/03/11 06:25:12;;;;;;;6.53;5.38;;;;;;;8.93;100.00;98544.63;10432258;28;20060;-63
2024/03/11 06:30:14;;;;;;;6.35;5.07;;;;;;;9.03;100.00;98555.97;10421258;28;20040;-62
2024/03/11 06:35:16;;;;;;;6.47;5.97;;;;;;;8.97;100.00;98565.38;10415014;28;20715;-62
2024/03/11 06:40:20;;;;;;;6.38;5.78;;;;;;;8.92;100.00;98569.50;10419533;28;20139;-63
2024/03/11 06:45:23;;;;;;;6.90;6.18;;;;;;;9.02;100.00;98575.53;10387163;28;20057;-64
2024/03/11 06:50:25;;;;;;;6.70;6.05;;;;;;;8.88;100.00;98587.53;10401505;28;20081;-62
2024/03/11 06:55:26;;;;;;;8.15;5.72;;;;;;;8.84;100.00;98602.94;10405271;28;20049;-64
2024/03/11 07:00:28;;;;;;;6.85;6.13;;;;;;;8.78;100.00;98600.91;10420529;28;20053;-63
2024/03/11 07:05:29;;;;;;;7.22;6.53;;;;;;;8.75;100.00;98590.59;10428213;28;20525;-63
2024/03/11 07:10:33;;;;;;;7.85;7.05;;;;;;;8.84;100.00;98618.88;10401863;28;20056;-63
2024/03/11 07:15:35;;;;;;;6.68;6.10;;;;;;;8.84;100.00;98610.91;10435278;28;22400;-64
2024/03/11 07:20:36;;;;;;;7.63;6.85;;;;;;;8.99;100.00;98634.22;10422144;28;20135;-64
2024/03/11 07:25:39;;;;;;;7.47;6.70;;;;;;;9.14;100.00;98645.16;10405077;28;20063;-63
2024/03/11 07:30:41;;;;;;;7.95;7.15;;;;;;;9.15;100.00;98647.66;10414761;28;20064;-64
2024/03/11 07:35:43;;;;;;;7.35;6.65;;;;;;;9.05;100.00;98662.81;10430695;28;20120;-65
2024/03/11 07:40:46;;;;;;;8.52;7.63;;;;;;;9.07;100.00;98663.50;10425036;28;20238;-65
2024/03/11 07:45:47;;;;;;;8.75;7.13;;;;;;;9.12;100.00;98661.22;10430835;28;20063;-65
2024/03/11 07:50:49;;;;;;;7.97;7.18;;;;;;;9.24;100.00;98684.91;10406045;28;20083;-65
2024/03/11 07:55:52;;;;;;;7.20;6.50;;;;;;;9.15;100.00;98676.84;10421736;28;20780;-66
2024/03/11 08:00:54;;;;;;;8.30;7.53;;;;;;;9.23;100.00;98688.53;10406265;28;20319;-65
2024/03/11 08:05:56;;;;;;;7.30;6.60;;;;;;;9.27;100.00;98703.16;10405740;28;20056;-64
2024/03/11 08:10:57;;;;;;;7.65;7.03;;;;;;;9.15;100.00;98703.41;10409328;28;20071;-64
2024/03/11 08:15:59;;;;;;;7.75;6.90;;;;;;;9.27;100.00;98721.75;10426802;28;20130;-64
2024/03/11 08:21:00;;;;;;;7.72;7.03;;;;;;;9.36;100.00;98740.25;10431007;28;20048;-65
2024/03/11 08:26:02;;;;;;;8.88;8.07;;;;;;;9.37;100.00;98741.09;10436928;28;20048;-64
2024/03/11 08:31:07;;;;;;;8.50;7.70;;;;;;;9.28;100.00;98753.47;10444977;28;20044;-65
2024/03/11 08:36:09;;;;;;;;;;;;;;;9.32;100.00;98756.63;10393747;28;20053;-64
2024/03/11 08:41:14;;;;;;;8.98;8.10;;;;;;;9.35;100.00;98759.84;10429648;28;20392;-66
2024/03/11 08:46:16;;;;;;;;;;;;;;;9.41;100.00;98774.31;10443324;28;20048;-66
2024/03/11 08:51:17;;;;;;;7.57;6.88;;;;;;;9.50;100.00;98776.06;10444203;28;19929;-67
2024/03/11 08:56:19;;;;;;;9.15;6.97;;;;;;;9.50;100.00;98776.06;10427407;28;20056;-65
2024/03/11 09:01:23;;;;;;;8.27;7.47;;;;;;;9.56;100.00;98801.19;10426049;28;20053;-64
2024/03/11 09:06:26;;;;;;;7.38;6.63;;;;;;;9.54;100.00;98797.84;10440236;28;20182;-63
2024/03/11 09:11:31;;;;;;;7.20;6.43;;;;;;;9.64;100.00;98821.69;10425982;28;20135;-65
2024/03/11 09:16:33;;;;;;;7.15;6.45;;;;;;;9.67;100.00;98826.69;10442796;28;20076;-63
2024/03/11 09:21:34;;;;;;;7.65;6.88;;;;;;;9.67;100.00;98839.97;10439033;28;20061;-63
2024/03/11 09:26:36;;;;;;;7.28;6.65;;;;;;;9.64;100.00;98845.59;10427230;28;20512;-61
2024/03/11 09:31:39;;;;;;;6.68;6.07;;;;;;;9.64;100.00;98850.91;10446166;28;20050;-61
2024/03/11 09:36:41;;;;;;;7.72;6.93;;;;;;;9.80;100.00;98863.50;10411416;28;20063;-62
2024/03/11 09:41:45;;;;;;;7.30;6.63;;;;;;;9.81;100.00;98838.59;10439115;28;20052;-63
2024/03/11 09:46:51;;;;;;;8.57;7.55;;;;;;;10.01;100.00;98868.50;10447060;28;20048;-61
2024/03/11 09:51:53;;;;;;;8.07;7.18;;;;;;;10.08;100.00;98881.00;10400557;28;20063;-61
2024/03/11 09:56:55;;;;;;;8.25;7.45;;;;;;;10.02;100.00;98883.47;10442165;28;20047;-59
2024/03/11 10:02:00;;;;;;;7.38;6.68;;;;;;;10.16;100.00;98884.72;10434858;28;20044;-61
2024/03/11 10:07:08;;;;;;;8.05;7.35;;;;;;;10.42;100.00;98892.78;10449733;28;20075;-60
2024/03/11 10:12:15;;;;;;;7.22;6.53;;;;;;;10.56;100.00;98884.22;10414558;28;20082;-61
2024/03/11 10:17:26;;;;;;;7.20;6.50;;;;;;;10.67;100.00;98896.41;10419649;28;20048;-61
2024/03/11 10:22:30;;;;;;;7.88;6.97;;;;;;;10.67;100.00;98885.75;10416982;28;20055;-62
2024/03/11 10:27:39;;;;;;;7.93;7.13;;;;;;;10.99;100.00;98889.63;10428001;28;20049;-63
2024/03/11 10:32:45;;;;;;;8.55;7.80;;;;;;;11.27;98.52;98892.88;10439897;28;20052;-63
2024/03/11 10:37:50;;;;;;;8.27;7.53;;;;;;;11.84;95.16;98905.50;10390525;28;20080;-63
2024/03/11 10:42:54;;;;;;;7.03;6.43;;;;;;;12.62;91.11;98899.84;10411192;28;20349;-63
2024/03/11 10:48:09;;;;;;;7.38;6.68;;;;;;;13.29;82.07;98906.66;10377772;28;20751;-64
2024/03/11 10:53:21;;;;;;;7.53;6.80;;;;;;;13.59;81.49;98905.84;10418376;28;20048;-64
2024/03/11 10:58:26;;;;;;;7.25;6.63;;;;;;;13.85;76.20;98906.53;10407555;28;20044;-63
2024/03/11 11:03:31;;;;;;;6.68;6.13;;;;;;;13.92;73.53;98907.50;10415148;28;20641;-64
2024/03/11 11:08:33;;;;;;;6.72;5.72;;;;;;;14.12;72.41;98915.88;10433891;28;20040;-64
2024/03/11 11:13:41;;;;;;;5.67;5.07;;;;;;;14.37;70.72;98921.03;10433861;28;20207;-63
2024/03/11 11:18:45;;;;;;;129.20;26.48;;;;;;;14.67;66.42;98909.38;10392321;28;20203;-63
2024/03/11 11:23:47;;;;;;;5.55;5.05;;;;;;;15.49;63.66;98914.81;10434718;28;20044;-64
2024/03/11 11:29:00;;;;;;;5.93;4.72;;;;;;;15.43;59.35;98928.97;10442595;28;20942;-62
2024/03/11 11:34:04;;;;;;;4.97;4.22;;;;;;;16.06;57.77;98926.59;10448627;28;20133;-64
2024/03/11 11:39:11;;;;;;;5.35;4.28;;;;;;;18.08;54.24;98921.41;10444903;28;20057;-63
2024/03/11 11:44:27;;;;;;;4.18;3.78;;;;;;;16.96;51.19;98937.69;10453760;28;20037;-64
2024/03/11 11:49:34;;;;;;;3.88;3.53;;;;;;;17.40;49.62;98952.63;10447652;28;20052;-64
2024/03/11 11:54:37;;;;;;;3.47;3.17;;;;;;;18.03;47.34;98938.19;10439000;28;20051;-65
2024/03/11 11:59:43;;;;;;;3.80;3.47;;;;;;;18.48;46.31;98937.59;10450581;28;20577;-63
2024/03/11 12:04:48;;;;;;;4.13;3.80;;;;;;;16.48;50.53;98937.50;10419055;28;20149;-64
2024/03/11 12:09:55;;;;;;;3.85;3.38;;;;;;;16.32;51.85;98941.28;10444601;28;20059;-66
2024/03/11 12:14:57;;;;;;;4.10;3.30;;;;;;;16.72;50.12;98938.94;10405769;28;20581;-65
2024/03/11 12:25:32;;;;;;;3.58;2.83;;;;;;;20.91;39.76;98929.88;10445261;28;20090;-67
2024/03/11 12:30:36;;;;;;;3.15;2.33;;;;;;;21.62;37.40;98934.94;10424965;28;20060;-65
2024/03/11 12:35:50;;;;;;;3.05;2.45;;;;;;;22.78;36.68;98937.41;10442720;28;20111;-66
2024/03/11 12:40:57;;;;;;;3.72;3.03;;;;;;;19.82;40.87;98923.84;10445214;28;20087;-64
2024/03/11 12:46:00;;;;;;;3.65;2.83;;;;;;;18.17;42.49;98947.09;10448243;28;20439;-65
2024/03/11 12:51:03;;;;;;;4.20;2.92;;;;;;;17.22;45.63;98945.09;10434907;28;20053;-64
2024/03/11 12:56:07;;;;;;;17.60;5.70;;;;;;;20.29;38.85;98945.97;10428319;28;20052;-65
2024/03/11 13:01:12;;;;;;;3.67;3.10;;;;;;;18.07;41.99;98941.28;10433923;28;20048;-64
2024/03/11 13:06:18;;;;;;;5.82;3.17;;;;;;;16.72;44.27;98944.31;10427076;28;22229;-66
2024/03/11 13:11:20;;;;;;;6.00;3.88;;;;;;;16.43;45.52;98956.91;10406604;28;20063;-64
2024/03/11 13:16:22;;;;;;;2.95;2.75;;;;;;;15.84;46.83;98953.44;10441659;28;20047;-63
2024/03/11 13:21:24;;;;;;;2.85;2.65;;;;;;;19.82;39.34;98964.34;10425603;28;20509;-64
2024/03/11 13:26:28;;;;;;;6.60;3.40;;;;;;;24.07;32.38;98957.25;10417184;28;20059;-64
2024/03/11 13:31:33;;;;;;;3.58;3.28;;;;;;;23.18;33.38;98963.84;10431461;28;20827;-64
2024/03/11 13:36:35;;;;;;;3.42;3.13;;;;;;;19.94;36.58;98952.63;10416401;28;20059;-64
2024/03/11 13:41:36;;;;;;;3.50;3.20;;;;;;;19.62;37.12;98981.38;10419163;28;20611;-64
2024/03/11 13:46:39;;;;;;;2.80;2.60;;;;;;;21.73;34.26;98980.22;10432287;28;20165;-64
2024/03/11 13:51:40;;;;;;;3.13;2.88;;;;;;;18.27;40.16;98996.03;10419839;28;20060;-63
2024/03/11 13:56:42;;;;;;;2.72;2.28;;;;;;;19.59;39.32;98993.47;10430603;28;20049;-64
2024/03/11 14:01:50;;;;;;;4.78;3.10;;;;;;;17.96;41.40;99004.63;10426250;28;20045;-64
2024/03/11 14:06:53;;;;;;;3.03;2.53;;;;;;;17.47;44.41;99006.44;10433257;28;20052;-63
2024/03/11 14:11:55;;;;;;;3.47;2.87;;;;;;;21.75;36.39;99010.59;10426359;28;20049;-64
2024/03/11 14:16:56;;;;;;;3.60;2.90;;;;;;;25.21;30.63;99006.22;10428325;28;20337;-64
2024/03/11 14:21:58;;;;;;;3.75;2.97;;;;;;;24.86;30.00;99015.44;10430855;28;25867;-64
2024/03/11 14:27:00;;;;;;;3.33;2.70;;;;;;;20.98;34.66;99019.06;10433383;28;20144;-61
2024/03/11 14:32:04;;;;;;;2.10;2.00;;;;;;;19.81;37.43;99024.75;10441834;28;20045;-61
2024/03/11 14:37:07;;;;;;;2.58;2.15;;;;;;;19.03;39.92;99037.97;10401517;28;20060;-61
2024/03/11 14:42:08;;;;;;;2.50;2.30;;;;;;;18.18;40.44;99037.63;10434007;28;20295;-62
2024/03/11 14:47:10;;;;;;;4.32;2.65;;;;;;;17.99;40.63;99047.31;10440890;28;20137;-61
2024/03/11 14:52:12;;;;;;;3.10;2.75;;;;;;;17.45;41.64;99067.69;10439936;28;20137;-61
2024/03/11 14:57:18;;;;;;;2.67;2.47;;;;;;;17.09;42.88;99060.63;10448495;28;20037;-60
2024/03/11 15:02:20;;;;;;;2.42;2.22;;;;;;;16.59;43.95;99063.25;10452320;28;20159;-60
2024/03/11 15:07:26;;;;;;;2.58;2.38;;;;;;;16.07;45.05;99067.84;10449454;28;20292;-60
2024/03/11 15:12:28;;;;;;;4.05;3.25;;;;;;;15.79;45.77;99068.50;10439166;28;20055;-62
2024/03/11 15:17:32;;;;;;;3.28;2.80;;;;;;;15.72;46.36;99081.81;10440436;28;20064;-60
2024/03/11 15:22:34;;;;;;;4.43;2.85;;;;;;;15.70;47.36;99085.69;10452624;28;20115;-60
2024/03/11 15:27:39;;;;;;;2.97;2.60;;;;;;;15.68;46.81;99087.75;10443000;28;20191;-61
2024/03/11 15:32:41;;;;;;;3.25;2.95;;;;;;;15.48;47.24;99087.47;10447453;28;20064;-61
2024/03/11 15:37:43;;;;;;;3.38;3.08;;;;;;;15.41;47.78;99094.56;10429706;28;20056;-61
2024/03/11 15:42:44;;;;;;;2.78;2.58;;;;;;;14.98;47.95;99108.50;10434127;28;20461;-61
2024/03/11 15:47:46;;;;;;;3.30;3.00;;;;;;;14.65;49.57;99112.28;10449671;28;20491;-60
2024/03/11 15:52:49;;;;;;;3.83;3.22;;;;;;;14.65;49.95;99120.31;10450134;28;20056;-61
2024/03/11 15:57:52;;;;;;;3.00;2.63;;;;;;;14.67;49.58;99120.97;10441576;28;20583;-62
2024/03/11 16:02:56;;;;;;;3.33;2.90;;;;;;;14.67;50.39;99128.19;10440427;28;20590;-61
2024/03/11 16:07:57;;;;;;;3.73;3.03;;;;;;;14.57;50.14;99133.72;10432988;28;20052;-60
2024/03/11 16:12:59;;;;;;;3.38;2.97;;;;;;;14.38;50.10;99140.38;10443810;28;20466;-60
2024/03/11 16:18:02;;;;;;;2.25;2.05;;;;;;;14.29;50.58;99146.75;10436842;28;20163;-59
2024/03/11 16:23:06;;;;;;;3.63;2.50;;;;;;;14.22;51.34;99145.81;10415531;28;21629;-60
2024/03/11 16:28:09;;;;;;;;;;;;;;;14.11;51.43;99149.66;10427663;28;20048;-61
2024/03/11 16:33:14;;;;;;;3.17;2.10;;;;;;;13.97;51.72;99143.19;10431416;28;19925;-60
2024/03/11 16:38:18;;;;;;;2.58;2.38;;;;;;;13.84;52.25;99142.91;10444585;28;20053;-60
2024/03/11 16:43:20;;;;;;;1.93;1.67;;;;;;;13.88;52.62;99161.13;10437517;28;20048;-61
2024/03/11 16:48:23;;;;;;;2.17;1.98;;;;;;;13.65;53.70;99168.22;10444340;28;20300;-60
2024/03/11 16:53:25;;;;;;;2.03;1.60;;;;;;;13.59;53.96;99177.75;10447306;28;20064;-60
2024/03/11 16:58:28;;;;;;;2.40;2.20;;;;;;;13.54;54.24;99190.75;10436076;28;20053;-62
2024/03/11 17:03:31;;;;;;;2.53;2.33;;;;;;;13.48;54.52;99188.78;10448131;28;20072;-59
2024/03/11 17:08:32;;;;;;;1.90;1.70;;;;;;;13.42;54.79;99191.13;10435210;28;20048;-60
2024/03/11 17:13:35;;;;;;;2.25;2.05;;;;;;;13.36;55.07;99193.63;10430548;28;20062;-60
2024/03/11 17:18:37;;;;;;;2.00;1.70;;;;;;;13.31;55.83;99204.78;10448308;28;20127;-59
2024/03/11 17:23:41;;;;;;;2.85;2.50;;;;;;;13.21;55.79;99204.94;10429886;28;20048;-60
2024/03/11 17:28:44;;;;;;;2.28;2.00;;;;;;;13.19;56.21;99209.59;10423245;28;20143;-61
2024/03/11 17:33:47;;;;;;;2.95;2.40;;;;;;;13.07;56.34;99217.09;10448058;28;20052;-60
2024/03/11 17:38:49;;;;;;;3.92;2.50;;;;;;;13.00;56.53;99218.78;10431749;28;20051;-61
2024/03/11 17:43:53;;;;;;;3.83;3.03;;;;;;;12.93;56.70;99215.09;10391408;28;20110;-61
2024/03/11 17:48:54;;;;;;;4.77;3.20;;;;;;;12.67;57.26;99209.84;10442676;28;20123;-60
2024/03/11 17:53:56;;;;;;;3.58;2.85;;;;;;;12.80;57.53;99230.75;10447017;28;20057;-59
2024/03/11 17:58:58;;;;;;;4.10;3.05;;;;;;;12.77;57.56;99231.91;10415877;28;20045;-59
2024/03/11 18:03:59;;;;;;;4.15;3.15;;;;;;;12.77;58.02;99241.75;10411829;28;20055;-62
2024/03/11 18:09:01;;;;;;;5.95;3.63;;;;;;;12.66;57.97;99243.72;10425378;28;20144;-61
2024/03/11 18:14:02;;;;;;;4.38;3.55;;;;;;;12.65;58.78;99255.41;10445195;28;20552;-61
2024/03/11 18:19:07;;;;;;;4.60;3.65;;;;;;;12.59;58.87;99250.72;10450005;28;20267;-59
2024/03/11 18:24:11;;;;;;;6.00;5.30;;;;;;;12.37;59.46;99220.13;10430132;28;20076;-61
2024/03/11 18:29:14;;;;;;;6.53;5.90;;;;;;;12.49;59.55;99250.84;10420309;28;20514;-62
2024/03/11 18:34:15;;;;;;;3.65;3.35;;;;;;;12.54;59.95;99274.38;10441404;28;20067;-60
2024/03/11 18:39:17;;;;;;;4.10;3.70;;;;;;;12.42;60.11;99291.69;10439189;28;20381;-60
2024/03/11 18:44:24;;;;;;;8.52;7.70;;;;;;;12.35;60.50;99302.97;10422688;28;20052;-60
2024/03/11 18:49:25;;;;;;;10.32;7.47;;;;;;;12.29;60.03;99300.13;10445855;28;20056;-60
2024/03/11 18:54:27;;;;;;;15.90;14.25;;;;;;;12.27;61.04;99312.78;10436764;28;20214;-59
2024/03/11 18:59:29;;;;;;;6.63;5.93;;;;;;;12.23;61.12;99320.25;10391714;28;20154;-59
2024/03/11 19:04:32;;;;;;;5.90;5.32;;;;;;;12.22;61.55;99318.59;10414934;28;20083;-60
2024/03/11 19:09:34;;;;;;;4.25;3.85;;;;;;;12.15;61.25;99322.88;10441410;28;20048;-60
2024/03/11 19:14:36;;;;;;;4.68;3.92;;;;;;;12.08;61.06;99327.16;10415854;28;20063;-60
2024/03/11 19:19:38;;;;;;;5.03;3.28;;;;;;;11.97;61.72;99347.75;10413246;28;20083;-60
2024/03/11 19:24:39;;;;;;;3.95;2.88;;;;;;;11.95;61.46;99355.06;10410769;28;20045;-60
2024/03/11 19:29:48;;;;;;;4.28;3.67;;;;;;;11.86;61.97;99358.63;10431152;28;20451;-59
2024/03/11 19:34:50;;;;;;;3.60;2.92;;;;;;;11.78;62.13;99356.72;10434130;28;20489;-60
2024/03/11 19:40:19;;;;;;;4.63;3.33;;;;;;;11.64;62.51;99358.09;10454397;28;20055;-60
2024/03/11 19:46:01;;;;;;;5.22;4.10;;;;;;;11.61;63.22;99374.41;10417752;28;20174;-60
2024/03/11 19:51:21;;;;;;;4.10;3.33;;;;;;;11.51;62.63;99373.63;10445459;28;20048;-60
2024/03/11 19:57:00;;;;;;;6.88;3.20;;;;;;;11.44;63.40;99378.72;10440084;28;20455;-60
2024/03/11 20:02:42;;;;;;;3.55;3.17;;;;;;;11.32;63.34;99390.59;10432416;28;20118;-60
2024/03/11 20:08:30;;;;;;;3.70;2.90;;;;;;;11.30;63.10;99393.41;10430016;28;20049;-59
2024/03/11 20:14:09;;;;;;;3.17;2.63;;;;;;;11.23;63.31;99397.66;10449064;28;20106;-60
2024/03/11 20:19:32;;;;;;;4.18;3.08;;;;;;;11.22;63.11;99413.78;10436387;28;20701;-61
2024/03/11 20:25:12;;;;;;;2.90;2.58;;;;;;;11.23;63.19;99410.97;10422992;28;20056;-60
2024/03/11 20:30:21;;;;;;;3.45;2.70;;;;;;;11.12;63.53;99413.81;10425460;28;20043;-60
2024/03/11 20:35:25;;;;;;;3.47;3.17;;;;;;;11.13;63.48;99424.31;10419611;28;20041;-60
2024/03/11 20:40:28;;;;;;;3.80;3.03;;;;;;;11.12;63.78;99429.78;10429499;28;20151;-61
2024/03/11 20:45:29;;;;;;;3.58;3.22;;;;;;;11.09;63.66;99438.09;10449316;28;20425;-60
2024/03/11 20:50:32;;;;;;;5.60;3.15;;;;;;;11.04;63.55;99429.72;10436194;28;20054;-60
2024/03/11 20:55:33;;;;;;;3.90;2.75;;;;;;;10.98;63.72;99443.63;10440623;28;20422;-61
2024/03/11 21:00:37;;;;;;;3.85;2.95;;;;;;;10.93;63.91;99449.38;10442631;28;20076;-61
2024/03/11 21:05:40;;;;;;;3.75;2.78;;;;;;;10.81;64.39;99464.69;10446263;28;20167;-61
2024/03/11 21:10:44;;;;;;;3.33;2.78;;;;;;;10.74;64.50;99474.22;10432384;28;20048;-60
2024/03/11 21:15:49;;;;;;;4.47;2.83;;;;;;;10.73;64.88;99485.84;10450028;28;20094;-61
2024/03/11 21:21:08;;;;;;;4.43;2.58;;;;;;;10.72;64.98;99484.16;10445793;28;20491;-61
2024/03/11 21:31:38;;;;;;;2.60;2.35;;;;;;;10.57;65.09;99481.97;10403213;28;20688;-61
2024/03/11 21:36:42;;;;;;;2.60;2.40;;;;;;;10.66;65.00;99500.69;10436259;28;20584;-60
2024/03/11 21:41:43;;;;;;;3.40;2.85;;;;;;;10.68;65.06;99512.06;10450500;28;20274;-60
2024/03/11 21:46:45;;;;;;;3.92;2.50;;;;;;;10.57;64.37;99513.88;10445666;28;20138;-60
2024/03/11 21:51:47;;;;;;;3.03;2.58;;;;;;;10.50;64.27;99526.06;10449191;28;20284;-58
2024/03/11 21:56:51;;;;;;;4.70;3.40;;;;;;;10.47;64.19;99534.34;10403129;28;20190;-61
2024/03/11 22:01:52;;;;;;;3.35;3.05;;;;;;;10.49;64.25;99531.53;10444974;28;20075;-61
2024/03/11 22:06:54;;;;;;;5.07;2.90;;;;;;;10.43;64.21;99543.56;10433232;28;20054;-59
2024/03/11 22:11:57;;;;;;;3.25;2.75;;;;;;;10.44;64.19;99545.25;10445977;28;20053;-60
2024/03/11 22:17:00;;;;;;;4.15;2.70;;;;;;;10.39;64.37;99542.19;10435131;28;20056;-61
2024/03/11 22:22:07;;;;;;;3.92;2.95;;;;;;;10.34;64.07;99553.22;10411517;28;20708;-62
2024/03/11 22:27:10;;;;;;;3.90;3.00;;;;;;;10.36;63.97;99553.13;10441547;28;20413;-61
2024/03/11 22:32:11;;;;;;;3.25;2.65;;;;;;;10.31;64.12;99549.97;10430893;28;20881;-60
2024/03/11 22:37:14;;;;;;;3.35;2.78;;;;;;;10.33;64.46;99550.69;10438645;28;20045;-59
2024/03/11 22:42:16;;;;;;;4.07;3.10;;;;;;;10.26;64.24;99553.91;10427683;28;20076;-60
2024/03/11 22:47:17;;;;;;;3.80;3.15;;;;;;;10.16;64.20;99557.53;10433963;28;20069;-59
2024/03/11 22:52:19;;;;;;;3.20;2.83;;;;;;;10.15;64.72;99562.03;10441858;28;20056;-59
2024/03/11 22:57:21;;;;;;;3.00;2.70;;;;;;;10.10;64.78;99564.22;10442335;28;20772;-60
2024/03/11 23:02:27;;;;;;;3.00;2.70;;;;;;;10.07;64.87;99569.81;10450163;28;20055;-60
2024/03/11 23:07:28;;;;;;;2.92;2.47;;;;;;;10.00;65.13;99568.72;10447582;28;20123;-60
2024/03/11 23:12:30;;;;;;;3.38;2.88;;;;;;;10.00;65.33;99568.72;10450365;28;20048;-60
2024/03/11 23:17:31;;;;;;;3.40;3.10;;;;;;;9.98;65.42;99571.47;10459410;28;20127;-61
2024/03/11 23:22:33;;;;;;;3.13;2.55;;;;;;;9.84;65.83;99559.41;10442996;28;20058;-60
2024/03/11 23:27:36;;;;;;;3.22;2.50;;;;;;;9.92;65.46;99574.69;10449868;28;20114;-59
2024/03/11 23:32:37;;;;;;;2.63;2.42;;;;;;;9.93;66.36;99572.88;10433261;28;20147;-60
2024/03/11 23:37:39;;;;;;;4.78;2.70;;;;;;;9.90;66.36;99574.81;10437100;28;20064;-59
2024/03/11 23:42:40;;;;;;;3.75;2.75;;;;;;;9.86;66.63;99577.88;10433029;28;20068;-60
2024/03/11 23:47:49;;;;;;;3.75;2.58;;;;;;;9.87;66.62;99585.72;10439086;28;21038;-59